createdAt,value
2023-05-19T00:00:19.050Z,97.43
2023-05-19T00:03:26.298Z,97.42
2023-05-19T00:06:27.746Z,97.41
2023-05-19T00:09:27.643Z,97.52
2023-05-19T00:12:34.826Z,97.29
2023-05-19T00:15:35.496Z,97.49
2023-05-19T00:18:35.186Z,97.30
2023-05-19T00:21:34.977Z,97.45
2023-05-19T00:24:33.690Z,97.28
2023-05-19T00:27:33.469Z,97.53
2023-05-19T00:30:33.345Z,97.52
2023-05-19T00:33:35.422Z,97.67
2023-05-19T00:36:42.585Z,97.33
2023-05-19T00:39:42.385Z,97.37
2023-05-19T00:42:50.437Z,97.36
2023-05-19T00:45:50.912Z,97.12
2023-05-19T00:48:49.631Z,97.33
2023-05-19T00:51:49.606Z,97.28
2023-05-19T00:54:56.665Z,97.37
2023-05-19T00:57:56.439Z,97.23
2023-05-19T01:01:04.210Z,96.86
2023-05-19T01:04:07.277Z,96.95
2023-05-19T01:07:17.128Z,96.96
2023-05-19T01:10:16.504Z,96.79
2023-05-19T01:13:15.535Z,96.74
2023-05-19T01:16:15.363Z,96.68
2023-05-19T01:19:10.270Z,96.93
2023-05-19T01:22:12.174Z,96.68
2023-05-19T01:25:04.760Z,96.69
2023-05-19T01:28:05.593Z,96.89
2023-05-19T01:31:13.564Z,96.58
2023-05-19T01:34:13.346Z,96.82
2023-05-19T01:37:12.046Z,96.60
2023-05-19T01:40:10.861Z,96.72
2023-05-19T01:43:13.192Z,96.77
2023-05-19T01:46:15.665Z,96.63
2023-05-19T01:49:15.440Z,96.69
2023-05-19T01:52:15.194Z,96.60
2023-05-19T01:55:21.276Z,96.60
2023-05-19T01:58:24.394Z,96.50
2023-05-19T02:01:07.902Z,96.13
2023-05-19T02:04:08.803Z,96.18
2023-05-19T02:06:53.329Z,96.52
2023-05-19T02:09:54.131Z,96.21
2023-05-19T02:12:52.862Z,96.16
2023-05-19T02:15:55.424Z,96.18
2023-05-19T02:18:55.263Z,96.32
2023-05-19T02:21:55.680Z,96.16
2023-05-19T02:24:57.899Z,96.44
2023-05-19T02:27:58.202Z,96.26
2023-05-19T02:30:57.518Z,96.28
2023-05-19T02:33:57.249Z,96.47
2023-05-19T02:37:02.525Z,96.46
2023-05-19T02:40:02.335Z,96.19
2023-05-19T02:43:01.072Z,96.31
2023-05-19T02:45:59.825Z,96.32
2023-05-19T02:49:06.978Z,96.46
2023-05-19T02:52:06.113Z,96.38
2023-05-19T02:55:04.783Z,96.46
2023-05-19T02:58:03.610Z,96.54
2023-05-19T03:01:02.300Z,96.53
2023-05-19T03:04:09.598Z,96.57
2023-05-19T03:07:09.316Z,96.62
2023-05-19T03:10:19.583Z,96.64
2023-05-19T03:13:09.932Z,96.70
2023-05-19T03:16:08.696Z,96.60
2023-05-19T03:19:08.731Z,96.80
2023-05-19T03:22:08.050Z,96.72
2023-05-19T03:25:06.759Z,96.77
2023-05-19T03:28:13.968Z,96.79
2023-05-19T03:31:13.701Z,96.82
2023-05-19T03:34:16.682Z,96.70
2023-05-19T03:37:16.431Z,96.83
2023-05-19T03:40:15.950Z,96.98
2023-05-19T03:43:15.123Z,97.13
2023-05-19T03:46:22.397Z,96.91
2023-05-19T03:49:17.722Z,97.03
2023-05-19T03:52:17.533Z,96.87
2023-05-19T03:55:17.238Z,97.14
2023-05-19T03:58:16.041Z,97.16
2023-05-19T04:01:14.787Z,97.27
2023-05-19T04:04:13.887Z,97.36
2023-05-19T04:07:21.006Z,97.43
2023-05-19T04:10:20.755Z,97.81
2023-05-19T04:13:19.572Z,97.81
2023-05-19T04:16:22.787Z,97.22
2023-05-19T04:19:22.183Z,97.32
2023-05-19T04:22:22.327Z,97.44
2023-05-19T04:25:27.966Z,97.61
2023-05-19T04:28:26.682Z,97.42
2023-05-19T04:31:27.018Z,97.64
2023-05-19T04:34:25.784Z,97.59
2023-05-19T04:37:30.630Z,97.66
2023-05-19T04:40:36.850Z,97.05
2023-05-19T04:43:35.575Z,97.10
2023-05-19T04:46:35.309Z,97.21
2023-05-19T04:49:34.048Z,97.04
2023-05-19T04:52:33.164Z,97.29
2023-05-19T04:55:40.331Z,97.22
2023-05-19T04:58:47.366Z,97.04
2023-05-19T05:01:46.754Z,96.52
2023-05-19T05:04:38.205Z,96.55
2023-05-19T05:07:37.023Z,96.78
2023-05-19T05:10:44.287Z,95.92
2023-05-19T05:13:44.074Z,95.84
2023-05-19T05:16:43.260Z,95.42
2023-05-19T05:19:47.512Z,95.31
2023-05-19T05:22:54.757Z,95.17
2023-05-19T05:25:54.217Z,95.00
2023-05-19T05:28:52.917Z,95.11
2023-05-19T05:31:51.912Z,95.02
2023-05-19T05:34:59.119Z,94.67
2023-05-19T05:37:58.584Z,94.83
2023-05-19T05:40:50.206Z,94.92
2023-05-19T05:43:57.049Z,94.58
2023-05-19T05:46:55.716Z,94.63
2023-05-19T05:49:55.465Z,94.63
2023-05-19T05:52:56.489Z,94.15
2023-05-19T05:55:56.430Z,94.53
2023-05-19T05:58:56.220Z,94.44
2023-05-19T06:02:03.635Z,94.58
2023-05-19T06:05:03.469Z,94.35
2023-05-19T06:08:03.325Z,94.29
2023-05-19T06:11:03.214Z,94.10
2023-05-19T06:13:54.999Z,94.10
2023-05-19T06:17:02.156Z,94.48
2023-05-19T06:20:01.664Z,94.20
2023-05-19T06:23:01.503Z,94.26
2023-05-19T06:26:01.437Z,94.33
2023-05-19T06:29:00.111Z,94.45
2023-05-19T06:32:08.310Z,94.36
2023-05-19T06:35:15.627Z,94.56
2023-05-19T06:38:16.106Z,94.24
2023-05-19T06:41:07.515Z,93.89
2023-05-19T06:44:17.112Z,94.22
2023-05-19T06:47:16.179Z,94.13
2023-05-19T06:50:16.299Z,94.18
2023-05-19T06:53:16.014Z,93.80
2023-05-19T06:56:14.872Z,93.94
2023-05-19T06:59:14.407Z,93.74
2023-05-19T07:02:21.846Z,93.52
2023-05-19T07:05:27.783Z,93.21
2023-05-19T07:08:27.020Z,93.05
2023-05-19T07:11:27.096Z,93.28
2023-05-19T07:14:26.172Z,92.89
2023-05-19T07:17:25.070Z,92.71
2023-05-19T07:20:23.976Z,92.82
2023-05-19T07:23:22.685Z,92.74
2023-05-19T07:26:21.473Z,92.76
2023-05-19T07:29:20.422Z,92.50
2023-05-19T07:32:19.598Z,92.47
2023-05-19T07:35:19.351Z,92.45
2023-05-19T07:38:26.501Z,92.58
2023-05-19T07:41:26.319Z,92.14
2023-05-19T07:44:25.383Z,92.05
2023-05-19T07:47:25.688Z,91.96
2023-05-19T07:50:24.555Z,91.84
2023-05-19T07:53:24.582Z,91.54
2023-05-19T07:56:21.839Z,91.20
2023-05-19T07:59:20.666Z,91.25
2023-05-19T08:02:20.614Z,91.16
2023-05-19T08:05:20.362Z,90.94
2023-05-19T08:08:12.233Z,90.40
2023-05-19T08:11:11.018Z,89.97
2023-05-19T08:14:10.084Z,89.27
2023-05-19T08:17:08.857Z,89.22
2023-05-19T08:20:19.554Z,89.53
2023-05-19T08:23:18.368Z,89.47
2023-05-19T08:26:17.461Z,89.34
2023-05-19T08:29:19.180Z,88.98
2023-05-19T08:32:18.051Z,88.54
2023-05-19T08:35:18.625Z,88.39
2023-05-19T08:38:18.333Z,88.41
2023-05-19T08:41:19.654Z,88.03
2023-05-19T08:44:20.430Z,88.06
2023-05-19T08:47:21.691Z,87.59
2023-05-19T08:50:21.569Z,87.59
2023-05-19T08:53:31.785Z,87.49
2023-05-19T08:56:34.238Z,87.44
2023-05-19T08:59:32.960Z,87.48
2023-05-19T09:02:31.847Z,87.25
2023-05-19T09:05:30.999Z,87.32
2023-05-19T09:08:29.792Z,87.25
2023-05-19T09:11:28.518Z,87.31
2023-05-19T09:14:28.204Z,87.32
2023-05-19T09:17:31.275Z,87.81
2023-05-19T09:20:39.646Z,87.55
2023-05-19T09:23:45.826Z,87.32
2023-05-19T09:26:44.756Z,87.15
2023-05-19T09:29:45.359Z,86.85
2023-05-19T09:36:00.219Z,87.07
2023-05-19T09:38:59.004Z,86.44
2023-05-19T09:41:57.835Z,86.38
2023-05-19T09:44:56.561Z,86.35
2023-05-19T09:47:55.709Z,86.59
2023-05-19T09:50:56.273Z,86.56
2023-05-19T09:53:46.744Z,86.37
2023-05-19T09:56:46.987Z,86.02
2023-05-19T09:59:46.344Z,86.41
2023-05-19T10:02:37.163Z,86.28
2023-05-19T10:05:36.174Z,86.31
2023-05-19T10:08:35.184Z,86.54
2023-05-19T10:11:34.471Z,86.54
2023-05-19T10:14:34.976Z,86.01
2023-05-19T10:17:33.803Z,85.91
2023-05-19T10:20:32.901Z,85.96
2023-05-19T10:23:32.940Z,85.83
2023-05-19T10:26:40.262Z,85.76
2023-05-19T10:29:47.583Z,85.63
2023-05-19T10:32:54.958Z,85.63
2023-05-19T10:35:49.643Z,85.95
2023-05-19T10:38:50.534Z,85.25
2023-05-19T10:41:46.925Z,85.39
2023-05-19T10:44:40.835Z,85.28
2023-05-19T10:47:39.565Z,85.44
2023-05-19T10:50:39.705Z,85.48
2023-05-19T10:53:39.708Z,85.22
2023-05-19T10:56:39.459Z,85.13
2023-05-19T10:59:39.541Z,85.22
2023-05-19T11:02:38.831Z,85.24
2023-05-19T11:05:32.434Z,85.48
2023-05-19T11:08:31.877Z,85.19
2023-05-19T11:11:31.477Z,85.17
2023-05-19T11:14:39.483Z,85.49
2023-05-19T11:17:46.586Z,85.47
2023-05-19T11:20:40.241Z,85.55
2023-05-19T11:23:29.052Z,85.50
2023-05-19T11:26:36.401Z,84.91
2023-05-19T11:29:35.458Z,85.45
2023-05-19T11:32:35.383Z,84.92
2023-05-19T11:35:27.414Z,85.11
2023-05-19T11:38:30.674Z,85.10
2023-05-19T11:41:31.884Z,85.71
2023-05-19T11:44:30.566Z,85.67
2023-05-19T11:47:38.738Z,85.59
2023-05-19T11:50:45.979Z,86.10
2023-05-19T11:53:53.177Z,86.09
2023-05-19T11:56:51.830Z,85.84
2023-05-19T11:59:50.736Z,86.11
2023-05-19T12:02:38.383Z,85.78
2023-05-19T12:05:42.022Z,86.30
2023-05-19T12:08:50.715Z,86.36
2023-05-19T12:11:51.075Z,86.63
2023-05-19T12:14:58.126Z,86.53
2023-05-19T12:18:05.635Z,86.48
2023-05-19T12:21:04.533Z,86.35
2023-05-19T12:24:04.439Z,86.47
2023-05-19T12:27:11.492Z,86.33
2023-05-19T12:30:11.525Z,86.52
2023-05-19T12:33:18.623Z,86.82
2023-05-19T12:36:18.424Z,86.50
2023-05-19T12:39:19.407Z,86.45
2023-05-19T12:42:25.802Z,86.63
2023-05-19T12:45:24.510Z,86.70
2023-05-19T12:48:24.282Z,86.37
2023-05-19T12:51:34.182Z,86.30
2023-05-19T12:54:34.020Z,86.20
2023-05-19T12:57:41.124Z,86.12
2023-05-19T13:00:33.231Z,86.22
2023-05-19T13:03:17.906Z,86.17
2023-05-19T13:06:17.131Z,85.89
2023-05-19T13:09:16.940Z,86.00
2023-05-19T13:12:16.573Z,85.83
2023-05-19T13:15:16.038Z,85.72
2023-05-19T13:18:14.777Z,85.43
2023-05-19T13:21:22.433Z,85.26
2023-05-19T13:24:21.189Z,85.03
2023-05-19T13:27:20.177Z,85.38
2023-05-19T13:30:18.921Z,85.42
2023-05-19T13:33:17.671Z,85.17
2023-05-19T13:36:17.461Z,85.07
2023-05-19T13:39:17.668Z,85.08
2023-05-19T13:42:17.411Z,84.87
2023-05-19T13:45:17.468Z,85.37
2023-05-19T13:48:10.366Z,85.47
2023-05-19T13:51:09.685Z,85.45
2023-05-19T13:54:05.427Z,85.44
2023-05-19T13:57:04.404Z,85.48
2023-05-19T14:00:04.023Z,85.48
2023-05-19T14:03:03.844Z,85.46
2023-05-19T14:06:02.576Z,85.57
2023-05-19T14:09:03.859Z,85.60
2023-05-19T14:12:11.101Z,85.57
2023-05-19T14:15:11.617Z,85.76
2023-05-19T14:18:11.476Z,85.71
2023-05-19T14:21:10.227Z,85.61
2023-05-19T14:24:08.884Z,85.68
2023-05-19T14:27:02.074Z,85.79
2023-05-19T14:30:00.982Z,85.83
2023-05-19T14:32:54.668Z,86.19
2023-05-19T14:35:54.289Z,86.31
2023-05-19T14:38:53.025Z,86.37
2023-05-19T14:41:45.411Z,86.39
2023-05-19T14:44:47.183Z,86.60
2023-05-19T14:47:47.069Z,86.59
2023-05-19T14:50:46.427Z,86.51
2023-05-19T14:53:45.168Z,86.41
2023-05-19T14:56:43.876Z,86.43
2023-05-19T14:59:43.100Z,86.34
2023-05-19T15:02:42.855Z,86.31
2023-05-19T15:05:41.599Z,86.20
2023-05-19T15:08:41.331Z,86.01
2023-05-19T15:11:42.235Z,86.02
2023-05-19T15:14:40.957Z,86.04
2023-05-19T15:17:39.720Z,85.95
2023-05-19T15:20:38.643Z,86.26
2023-05-19T15:23:38.417Z,86.27
2023-05-19T15:26:38.196Z,86.36
2023-05-19T15:29:37.120Z,86.45
2023-05-19T15:32:29.773Z,86.37
2023-05-19T15:35:28.580Z,86.63
2023-05-19T15:38:30.008Z,86.56
2023-05-19T15:41:33.521Z,86.44
2023-05-19T15:44:32.797Z,86.24
2023-05-19T15:47:31.715Z,86.39
2023-05-19T15:50:31.402Z,86.39
2023-05-19T15:53:31.298Z,86.40
2023-05-19T15:56:31.017Z,86.47
2023-05-19T15:59:38.141Z,86.67
2023-05-19T16:02:36.962Z,86.89
2023-05-19T16:05:35.765Z,86.89
2023-05-19T16:08:34.492Z,86.90
2023-05-19T16:11:34.253Z,86.90
2023-05-19T16:14:24.627Z,86.83
2023-05-19T16:17:24.474Z,87.14
2023-05-19T16:20:23.303Z,87.05
2023-05-19T16:23:22.625Z,87.28
2023-05-19T16:26:22.364Z,87.00
2023-05-19T16:29:21.129Z,87.36
2023-05-19T16:32:20.033Z,87.48
2023-05-19T16:35:22.220Z,87.63
2023-05-19T16:38:29.453Z,87.82
2023-05-19T16:41:30.184Z,87.73
2023-05-19T16:44:30.401Z,87.71
2023-05-19T16:47:29.140Z,87.92
2023-05-19T16:50:27.974Z,87.93
2023-05-19T16:53:26.658Z,88.17
2023-05-19T16:56:28.460Z,88.15
2023-05-19T16:59:28.156Z,88.20
2023-05-19T17:02:26.957Z,88.35
2023-05-19T17:05:31.528Z,88.34
2023-05-19T17:08:31.303Z,88.22
2023-05-19T17:11:30.068Z,88.62
2023-05-19T17:14:28.848Z,88.52
2023-05-19T17:17:27.577Z,88.66
2023-05-19T17:20:34.974Z,88.73
2023-05-19T17:23:42.217Z,88.59
2023-05-19T17:26:43.723Z,88.58
2023-05-19T17:29:43.483Z,88.65
2023-05-19T17:32:50.653Z,88.95
2023-05-19T17:35:42.262Z,88.96
2023-05-19T17:38:41.642Z,88.98
2023-05-19T17:41:41.857Z,89.09
2023-05-19T17:44:41.576Z,89.31
2023-05-19T17:47:41.876Z,89.45
2023-05-19T17:50:43.272Z,89.37
2023-05-19T17:53:42.022Z,89.39
2023-05-19T17:56:40.962Z,89.38
2023-05-19T17:59:48.089Z,89.34
2023-05-19T18:02:40.759Z,89.31
2023-05-19T18:05:39.625Z,89.28
2023-05-19T18:08:39.793Z,89.36
2023-05-19T18:11:39.096Z,89.30
2023-05-19T18:14:38.055Z,89.39
2023-05-19T18:17:36.903Z,89.34
2023-05-19T18:20:36.029Z,89.48
2023-05-19T18:23:34.829Z,89.35
2023-05-19T18:26:33.587Z,89.57
2023-05-19T18:29:32.963Z,89.60
2023-05-19T18:32:31.829Z,89.59
2023-05-19T18:35:31.616Z,89.93
2023-05-19T18:38:31.357Z,89.88
2023-05-19T18:41:31.500Z,90.02
2023-05-19T18:44:31.740Z,90.04
2023-05-19T18:47:41.886Z,90.02
2023-05-19T18:50:41.826Z,90.03
2023-05-19T18:53:48.929Z,90.11
2023-05-19T18:56:48.837Z,90.25
2023-05-19T18:59:42.339Z,90.22
2023-05-19T19:02:41.073Z,90.25
2023-05-19T19:05:48.289Z,90.16
2023-05-19T19:08:47.056Z,90.30
2023-05-19T19:11:47.494Z,90.34
2023-05-19T19:14:52.158Z,90.48
2023-05-19T19:17:53.952Z,90.65
2023-05-19T19:20:52.661Z,90.62
2023-05-19T19:23:54.571Z,90.58
2023-05-19T19:26:53.501Z,90.69
2023-05-19T19:29:53.274Z,90.74
2023-05-19T19:32:53.088Z,90.62
2023-05-19T19:35:54.617Z,90.75
2023-05-19T19:38:46.451Z,90.84
2023-05-19T19:41:46.672Z,90.76
2023-05-19T19:44:46.596Z,90.87
2023-05-19T19:47:37.072Z,90.96
2023-05-19T19:50:34.467Z,90.94
2023-05-19T19:53:34.745Z,90.87
2023-05-19T19:56:33.712Z,90.99
2023-05-19T19:59:32.519Z,90.96
2023-05-19T20:02:31.314Z,90.88
2023-05-19T20:05:30.667Z,91.05
2023-05-19T20:08:30.637Z,91.08
2023-05-19T20:11:22.905Z,91.00
2023-05-19T20:14:22.754Z,91.14
2023-05-19T20:17:21.827Z,91.05
2023-05-19T20:20:20.632Z,91.13
2023-05-19T20:23:20.460Z,91.27
2023-05-19T20:26:20.225Z,91.47
2023-05-19T20:29:22.678Z,91.69
2023-05-19T20:32:22.683Z,91.61
2023-05-19T20:35:23.389Z,91.60
2023-05-19T20:38:23.156Z,91.74
2023-05-19T20:41:23.534Z,91.75
2023-05-19T20:44:22.292Z,91.50
2023-05-19T20:47:21.114Z,91.45
2023-05-19T20:50:19.829Z,91.46
2023-05-19T20:53:18.579Z,91.53
2023-05-19T20:56:19.239Z,91.49
2023-05-19T20:59:18.961Z,91.50
2023-05-19T21:02:17.776Z,91.38
2023-05-19T21:05:24.899Z,91.43
2023-05-19T21:08:23.674Z,91.69
2023-05-19T21:11:22.663Z,91.70
2023-05-19T21:14:26.110Z,91.77
2023-05-19T21:17:16.548Z,91.89
2023-05-19T21:20:14.486Z,91.99
2023-05-19T21:23:14.474Z,92.11
2023-05-19T21:26:14.187Z,92.19
2023-05-19T21:29:13.007Z,92.33
2023-05-19T21:32:11.974Z,92.48
2023-05-19T21:35:10.782Z,92.41
2023-05-19T21:38:23.938Z,92.46
2023-05-19T21:41:31.507Z,92.59
2023-05-19T21:44:30.465Z,92.61
2023-05-19T21:47:34.507Z,92.59
2023-05-19T21:50:34.535Z,92.82
2023-05-19T21:53:33.448Z,92.67
2023-05-19T21:56:33.149Z,92.77
2023-05-19T21:59:31.906Z,92.61
2023-05-19T22:02:31.201Z,92.75
2023-05-19T22:05:30.200Z,92.67
2023-05-19T22:08:30.061Z,92.67
2023-05-19T22:11:29.143Z,92.79
2023-05-19T22:14:27.879Z,92.76
2023-05-19T22:17:26.742Z,92.96
2023-05-19T22:20:25.487Z,92.91
2023-05-19T22:23:28.472Z,93.20
2023-05-19T22:26:29.366Z,93.25
2023-05-19T22:29:29.140Z,93.49
2023-05-19T22:32:27.950Z,93.44
2023-05-19T22:35:35.330Z,93.47
2023-05-19T22:38:25.661Z,93.62
2023-05-19T22:41:25.968Z,93.47
2023-05-19T22:44:24.705Z,93.56
2023-05-19T22:47:32.116Z,93.66
2023-05-19T22:50:31.904Z,93.82
2023-05-19T22:53:39.014Z,93.78
2023-05-19T22:56:37.976Z,93.91
2023-05-19T22:59:36.974Z,93.91
2023-05-19T23:02:35.720Z,94.02
2023-05-19T23:05:27.701Z,93.88
2023-05-19T23:08:29.877Z,94.02
2023-05-19T23:11:28.928Z,94.06
2023-05-19T23:14:27.708Z,94.16
2023-05-19T23:17:26.907Z,94.12
2023-05-19T23:20:21.644Z,94.16
2023-05-19T23:23:22.283Z,93.95
2023-05-19T23:26:21.013Z,94.24
2023-05-19T23:29:20.082Z,94.44
2023-05-19T23:32:18.857Z,94.35
2023-05-19T23:35:17.716Z,94.48
2023-05-19T23:38:17.466Z,94.14
2023-05-19T23:41:17.220Z,94.25
2023-05-19T23:44:15.700Z,94.24
2023-05-19T23:47:19.327Z,94.37
2023-05-19T23:50:10.068Z,94.28
2023-05-19T23:53:08.831Z,94.40
2023-05-19T23:56:08.109Z,94.57
2023-05-19T23:59:07.144Z,94.41
